createdAt,value
2019-05-29T00:02:01.724Z,2.33
2019-05-29T00:04:34.685Z,2.67
2019-05-29T00:07:08.008Z,2.13
2019-05-29T00:09:42.364Z,2.20
2019-05-29T00:12:19.667Z,1.77
2019-05-29T00:14:49.976Z,1.70
2019-05-29T00:17:23.105Z,1.67
2019-05-29T00:19:56.059Z,2.30
2019-05-29T00:22:29.196Z,2.30
2019-05-29T00:25:02.171Z,2.37
2019-05-29T00:27:36.377Z,2.13
2019-05-29T00:30:13.377Z,2.63
2019-05-29T00:32:46.012Z,2.30
2019-05-29T00:35:19.213Z,2.60
2019-05-29T00:37:52.291Z,1.80
2019-05-29T00:40:25.238Z,2.80
2019-05-29T00:42:58.157Z,2.80
2019-05-29T00:45:31.193Z,3.10
2019-05-29T00:48:04.283Z,2.20
2019-05-29T00:50:37.262Z,2.23
2019-05-29T00:53:12.135Z,2.80
2019-05-29T00:55:45.300Z,3.37
2019-05-29T00:58:19.824Z,4.03
2019-05-29T01:00:52.541Z,1.80
2019-05-29T01:03:25.477Z,2.63
2019-05-29T01:05:58.549Z,2.70
2019-05-29T01:08:31.638Z,2.93
2019-05-29T01:11:04.551Z,2.10
2019-05-29T01:13:37.620Z,1.90
2019-05-29T01:16:11.306Z,2.37
2019-05-29T01:18:44.281Z,2.57
2019-05-29T01:21:18.690Z,3.27
2019-05-29T01:23:51.866Z,3.70
2019-05-29T01:26:25.070Z,2.40
2019-05-29T01:28:58.058Z,2.40
2019-05-29T01:31:31.868Z,2.17
2019-05-29T01:34:04.663Z,2.83
2019-05-29T01:36:38.040Z,2.60
2019-05-29T01:39:11.588Z,2.20
2019-05-29T01:41:44.689Z,2.80
2019-05-29T01:44:19.300Z,2.30
2019-05-29T01:46:52.287Z,3.00
2019-05-29T01:49:25.246Z,2.77
2019-05-29T01:51:59.089Z,2.03
2019-05-29T01:54:32.071Z,2.17
2019-05-29T01:57:05.294Z,2.33
2019-05-29T01:59:38.462Z,2.73
2019-05-29T02:02:12.025Z,2.40
2019-05-29T02:04:44.854Z,4.63
2019-05-29T02:07:18.445Z,2.00
2019-05-29T02:09:51.389Z,2.13
2019-05-29T02:12:24.424Z,2.53
2019-05-29T02:14:57.402Z,2.63
2019-05-29T02:17:30.515Z,1.77
2019-05-29T02:20:03.402Z,2.50
2019-05-29T02:22:36.568Z,2.27
2019-05-29T02:25:15.692Z,2.60
2019-05-29T02:27:47.276Z,2.37
2019-05-29T02:30:21.129Z,1.73
2019-05-29T02:32:55.679Z,1.90
2019-05-29T02:35:29.562Z,1.50
2019-05-29T02:38:03.703Z,2.63
2019-05-29T02:40:36.465Z,2.37
2019-05-29T02:43:10.086Z,2.00
2019-05-29T02:45:53.440Z,1.80
2019-05-29T02:48:18.504Z,2.60
2019-05-29T02:50:51.414Z,1.80
2019-05-29T02:53:24.507Z,1.80
2019-05-29T02:55:57.621Z,1.87
2019-05-29T02:58:33.906Z,2.77
2019-05-29T03:01:07.820Z,2.57
2019-05-29T03:03:40.953Z,2.43
2019-05-29T03:06:13.954Z,2.80
2019-05-29T03:08:48.388Z,1.77
2019-05-29T03:11:22.888Z,2.07
2019-05-29T03:13:55.509Z,2.43
2019-05-29T03:16:30.115Z,2.10
2019-05-29T03:19:02.580Z,2.20
2019-05-29T03:21:35.676Z,2.57
2019-05-29T03:24:09.684Z,2.13
2019-05-29T03:26:42.404Z,1.67
2019-05-29T03:29:15.830Z,2.90
2019-05-29T03:31:49.073Z,4.50
2019-05-29T03:34:22.434Z,1.80
2019-05-29T03:36:55.647Z,1.70
2019-05-29T03:39:30.003Z,1.83
2019-05-29T03:42:02.808Z,2.20
2019-05-29T03:44:36.100Z,1.60
2019-05-29T03:47:10.533Z,4.37
2019-05-29T03:49:43.661Z,1.90
2019-05-29T03:52:16.374Z,2.30
2019-05-29T03:54:50.743Z,2.57
2019-05-29T03:57:23.661Z,2.00
2019-05-29T03:59:56.512Z,1.60
2019-05-29T04:02:31.225Z,2.20
2019-05-29T04:05:04.823Z,3.00
2019-05-29T04:07:38.559Z,2.27
2019-05-29T04:10:11.906Z,2.87
2019-05-29T04:12:44.691Z,2.53
2019-05-29T04:15:17.615Z,2.37
2019-05-29T04:17:50.646Z,4.60
2019-05-29T04:20:23.679Z,2.17
2019-05-29T04:22:58.255Z,4.30
2019-05-29T04:25:37.142Z,2.63
2019-05-29T04:28:09.980Z,2.80
2019-05-29T04:30:43.188Z,2.33
2019-05-29T04:33:16.375Z,2.87
2019-05-29T04:35:50.105Z,2.00
2019-05-29T04:38:24.310Z,2.83
2019-05-29T04:40:57.407Z,2.50
2019-05-29T04:43:31.129Z,2.70
2019-05-29T04:46:04.511Z,1.80
2019-05-29T04:48:38.246Z,2.70
2019-05-29T04:51:11.286Z,3.87
2019-05-29T04:53:44.270Z,2.40
2019-05-29T04:56:17.404Z,1.73
2019-05-29T04:58:50.345Z,2.80
2019-05-29T05:01:23.727Z,3.37
2019-05-29T05:03:56.606Z,2.80
2019-05-29T05:06:29.633Z,2.70
2019-05-29T05:09:02.792Z,3.40
2019-05-29T05:11:35.675Z,2.53
2019-05-29T05:14:09.682Z,2.67
2019-05-29T05:16:42.715Z,5.23
2019-05-29T05:19:17.047Z,2.23
2019-05-29T05:21:50.220Z,2.87
2019-05-29T05:24:24.079Z,2.70
2019-05-29T05:26:57.067Z,2.20
2019-05-29T05:29:30.155Z,2.33
2019-05-29T05:32:03.068Z,2.57
2019-05-29T05:34:36.872Z,2.60
2019-05-29T05:37:09.854Z,2.40
2019-05-29T05:39:43.035Z,2.40
2019-05-29T05:42:15.828Z,3.17
2019-05-29T05:44:49.202Z,3.23
2019-05-29T05:47:22.005Z,2.80
2019-05-29T05:49:56.269Z,3.13
2019-05-29T05:52:29.403Z,3.50
2019-05-29T05:55:02.536Z,3.50
2019-05-29T05:57:35.645Z,3.57
2019-05-29T06:00:10.609Z,3.63
2019-05-29T06:02:44.176Z,3.60
2019-05-29T06:05:17.122Z,3.37
2019-05-29T06:07:50.338Z,3.10
2019-05-29T06:10:24.322Z,3.10
2019-05-29T06:12:57.380Z,2.87
2019-05-29T06:15:30.619Z,2.90
2019-05-29T06:18:19.831Z,3.07
2019-05-29T06:20:38.934Z,3.80
2019-05-29T06:23:11.756Z,2.60
2019-05-29T06:25:44.979Z,3.40
2019-05-29T06:28:19.345Z,3.13
2019-05-29T06:30:52.864Z,4.43
2019-05-29T06:33:25.800Z,3.33
2019-05-29T06:36:00.080Z,3.10
2019-05-29T06:38:33.613Z,3.03
2019-05-29T06:41:06.799Z,2.80
2019-05-29T06:43:39.879Z,3.13
2019-05-29T06:46:13.378Z,4.90
2019-05-29T06:48:58.791Z,3.47
2019-05-29T06:51:20.429Z,2.67
2019-05-29T06:53:53.711Z,3.67
2019-05-29T06:56:27.155Z,3.90
2019-05-29T06:58:59.918Z,3.40
2019-05-29T07:01:32.856Z,3.97
2019-05-29T07:04:11.723Z,3.90
2019-05-29T07:06:40.596Z,4.50
2019-05-29T07:09:13.314Z,6.57
2019-05-29T07:11:47.449Z,5.70
2019-05-29T07:14:20.121Z,6.27
2019-05-29T07:16:56.207Z,5.60
2019-05-29T07:19:45.132Z,4.53
2019-05-29T07:22:00.842Z,5.57
2019-05-29T07:24:34.899Z,3.70
2019-05-29T07:27:12.557Z,4.57
2019-05-29T07:29:43.325Z,3.30
2019-05-29T07:32:16.218Z,3.73
2019-05-29T07:35:02.069Z,3.10
2019-05-29T07:37:24.312Z,3.67
2019-05-29T07:39:58.294Z,4.23
2019-05-29T07:42:31.684Z,4.63
2019-05-29T07:45:04.494Z,5.13
2019-05-29T07:47:38.306Z,3.70
2019-05-29T07:50:13.537Z,3.10
2019-05-29T07:52:47.244Z,3.10
2019-05-29T07:55:23.531Z,3.60
2019-05-29T07:57:54.383Z,2.90
2019-05-29T08:00:35.370Z,2.60
2019-05-29T08:03:01.489Z,3.10
2019-05-29T08:05:34.927Z,2.93
2019-05-29T08:08:07.772Z,2.60
2019-05-29T08:10:41.662Z,2.50
2019-05-29T08:13:15.693Z,2.50
2019-05-29T08:15:57.556Z,2.60
2019-05-29T08:18:22.600Z,3.20
2019-05-29T08:20:55.334Z,2.73
2019-05-29T08:23:27.903Z,2.53
2019-05-29T08:26:00.815Z,2.37
2019-05-29T08:28:33.645Z,2.20
2019-05-29T08:31:06.335Z,2.97
2019-05-29T08:33:40.709Z,2.60
2019-05-29T08:36:13.384Z,1.90
2019-05-29T08:38:47.406Z,2.80
2019-05-29T08:41:20.092Z,2.70
2019-05-29T08:43:53.963Z,3.07
2019-05-29T08:46:27.055Z,2.70
2019-05-29T08:48:59.770Z,3.20
2019-05-29T08:51:32.795Z,2.70
2019-05-29T08:54:23.042Z,2.80
2019-05-29T08:56:40.594Z,2.67
2019-05-29T08:59:14.469Z,2.60
2019-05-29T09:01:48.636Z,1.87
2019-05-29T09:04:21.646Z,3.40
2019-05-29T09:06:54.339Z,4.73
2019-05-29T09:09:27.452Z,3.37
2019-05-29T09:12:00.309Z,2.50
2019-05-29T09:14:33.425Z,3.50
2019-05-29T09:17:07.019Z,2.63
2019-05-29T09:19:39.847Z,2.97
2019-05-29T09:22:14.608Z,3.53
2019-05-29T09:24:47.241Z,2.97
2019-05-29T09:27:21.162Z,3.20
2019-05-29T09:29:53.712Z,2.70
2019-05-29T09:32:48.677Z,3.00
2019-05-29T09:35:00.699Z,2.43
2019-05-29T09:37:33.690Z,2.10
2019-05-29T09:40:07.917Z,2.50
2019-05-29T09:42:40.515Z,3.30
2019-05-29T09:45:13.723Z,4.43
2019-05-29T09:47:46.700Z,4.07
2019-05-29T09:50:20.918Z,4.77
2019-05-29T09:52:55.308Z,5.30
2019-05-29T09:55:28.282Z,6.00
2019-05-29T09:58:03.494Z,4.00
2019-05-29T10:00:39.142Z,4.67
2019-05-29T10:03:13.156Z,5.30
2019-05-29T10:05:45.969Z,4.60
2019-05-29T10:08:19.231Z,3.77
2019-05-29T10:10:51.949Z,3.40
2019-05-29T10:13:25.436Z,3.70
2019-05-29T10:15:59.122Z,3.77
2019-05-29T10:18:33.071Z,3.70
2019-05-29T10:21:07.244Z,2.70
2019-05-29T10:23:40.241Z,3.10
2019-05-29T10:26:12.845Z,2.90
2019-05-29T10:29:02.290Z,4.80
2019-05-29T10:31:19.813Z,2.80
2019-05-29T10:33:53.746Z,3.70
2019-05-29T10:36:26.526Z,3.83
2019-05-29T10:38:59.345Z,3.00
2019-05-29T10:41:33.673Z,3.50
2019-05-29T10:44:07.200Z,2.90
2019-05-29T10:46:40.183Z,3.67
2019-05-29T10:49:14.225Z,3.93
2019-05-29T10:52:01.547Z,3.63
2019-05-29T10:54:21.496Z,2.53
2019-05-29T10:56:54.995Z,3.27
2019-05-29T10:59:27.942Z,5.37
2019-05-29T11:02:01.759Z,2.53
2019-05-29T11:04:34.524Z,2.30
2019-05-29T11:07:08.355Z,3.03
2019-05-29T11:09:44.601Z,4.23
2019-05-29T11:12:15.153Z,2.77
2019-05-29T11:14:50.723Z,3.27
2019-05-29T11:17:23.403Z,2.40
2019-05-29T11:19:58.070Z,3.20
2019-05-29T11:22:30.309Z,3.30
2019-05-29T11:25:21.154Z,3.93
2019-05-29T11:27:38.313Z,3.70
2019-05-29T11:30:12.275Z,2.73
2019-05-29T11:32:47.718Z,2.73
2019-05-29T11:35:20.424Z,2.80
2019-05-29T11:37:54.508Z,3.20
2019-05-29T11:40:27.368Z,3.27
2019-05-29T11:43:01.075Z,2.60
2019-05-29T11:45:35.640Z,3.03
2019-05-29T11:48:08.806Z,3.20
2019-05-29T11:50:41.549Z,2.60
2019-05-29T11:53:14.616Z,2.50
2019-05-29T11:55:47.397Z,4.13
2019-05-29T11:58:30.582Z,2.53
2019-05-29T12:00:55.081Z,2.07
2019-05-29T12:03:28.003Z,3.47
2019-05-29T12:06:03.029Z,3.10
2019-05-29T12:08:35.391Z,2.47
2019-05-29T12:11:08.206Z,2.20
2019-05-29T12:13:41.164Z,2.77
2019-05-29T12:16:14.338Z,3.67
2019-05-29T12:18:47.366Z,3.17
2019-05-29T12:21:20.010Z,2.90
2019-05-29T12:23:53.919Z,2.33
2019-05-29T12:26:28.169Z,2.57
2019-05-29T12:29:08.403Z,1.87
2019-05-29T12:31:35.287Z,3.07
2019-05-29T12:34:18.920Z,2.60
2019-05-29T12:36:42.523Z,4.10
2019-05-29T12:39:15.179Z,2.63
2019-05-29T12:41:48.947Z,2.83
2019-05-29T12:44:21.720Z,2.77
2019-05-29T12:46:57.606Z,2.20
2019-05-29T12:49:30.167Z,2.37
2019-05-29T12:52:07.192Z,1.80
2019-05-29T12:54:37.344Z,2.60
2019-05-29T12:57:11.153Z,2.30
2019-05-29T12:59:44.964Z,2.97
2019-05-29T13:02:18.323Z,3.00
2019-05-29T13:05:06.891Z,3.20
2019-05-29T13:07:25.169Z,2.30
2019-05-29T13:09:58.799Z,2.43
2019-05-29T13:12:31.730Z,2.40
2019-05-29T13:15:05.725Z,2.40
2019-05-29T13:17:38.548Z,3.10
2019-05-29T13:20:21.228Z,2.43
2019-05-29T13:22:46.948Z,2.17
2019-05-29T13:25:19.906Z,2.43
2019-05-29T13:27:52.961Z,3.63
2019-05-29T13:30:25.970Z,2.97
2019-05-29T13:33:02.904Z,1.60
2019-05-29T13:35:33.117Z,2.20
2019-05-29T13:38:07.181Z,2.53
2019-05-29T13:40:39.864Z,1.50
2019-05-29T13:43:15.788Z,1.97
2019-05-29T13:45:48.257Z,1.80
2019-05-29T13:48:23.421Z,2.40
2019-05-29T13:50:55.275Z,2.03
2019-05-29T13:53:28.152Z,2.00
2019-05-29T13:56:01.918Z,2.30
2019-05-29T13:58:35.141Z,3.40
2019-05-29T14:01:08.366Z,1.23
2019-05-29T14:03:41.270Z,1.87
2019-05-29T14:06:13.918Z,1.77
2019-05-29T14:08:46.582Z,1.77
2019-05-29T14:11:19.672Z,2.00
2019-05-29T14:13:52.314Z,1.80
2019-05-29T14:16:25.229Z,2.73
2019-05-29T14:18:57.851Z,1.73
2019-05-29T14:21:30.771Z,1.47
2019-05-29T14:24:22.520Z,2.23
2019-05-29T14:26:37.761Z,1.70
2019-05-29T14:29:11.717Z,1.73
2019-05-29T14:31:44.401Z,1.97
2019-05-29T14:34:17.311Z,1.50
2019-05-29T14:36:50.262Z,1.80
2019-05-29T14:39:22.970Z,1.40
2019-05-29T14:41:56.118Z,2.10
2019-05-29T14:44:29.260Z,1.90
2019-05-29T14:47:01.927Z,1.40
2019-05-29T14:49:35.257Z,1.43
2019-05-29T14:52:08.689Z,1.97
2019-05-29T14:54:42.644Z,1.30
2019-05-29T14:57:25.651Z,2.70
2019-05-29T14:59:49.954Z,2.10
2019-05-29T15:02:24.075Z,2.70
2019-05-29T15:04:56.736Z,2.07
2019-05-29T15:07:29.781Z,2.03
2019-05-29T15:10:08.406Z,2.10
2019-05-29T15:12:36.336Z,1.80
2019-05-29T15:15:11.422Z,2.13
2019-05-29T15:17:45.053Z,2.10
2019-05-29T15:20:18.567Z,1.70
2019-05-29T15:22:51.861Z,1.80
2019-05-29T15:25:24.575Z,1.47
2019-05-29T15:27:57.239Z,1.37
2019-05-29T15:30:30.028Z,2.53
2019-05-29T15:33:02.822Z,1.20
2019-05-29T15:35:35.890Z,1.97
2019-05-29T15:38:08.774Z,1.50
2019-05-29T15:40:41.554Z,1.27
2019-05-29T15:43:15.286Z,1.83
2019-05-29T15:45:48.462Z,2.03
2019-05-29T15:48:21.264Z,1.60
2019-05-29T15:50:53.902Z,1.60
2019-05-29T15:53:26.391Z,2.20
2019-05-29T15:56:16.400Z,1.70
2019-05-29T15:58:32.828Z,1.70
2019-05-29T16:01:07.474Z,1.23
2019-05-29T16:03:40.655Z,1.90
2019-05-29T16:06:13.902Z,2.03
2019-05-29T16:08:46.786Z,1.87
2019-05-29T16:11:19.622Z,1.53
2019-05-29T16:13:52.436Z,1.60
2019-05-29T16:16:25.197Z,1.73
2019-05-29T16:19:00.487Z,1.37
2019-05-29T16:21:32.217Z,2.17
2019-05-29T16:24:04.886Z,2.17
2019-05-29T16:26:37.737Z,2.40
2019-05-29T16:29:10.563Z,1.50
2019-05-29T16:31:43.361Z,1.97
2019-05-29T16:34:18.414Z,1.87
2019-05-29T16:36:49.959Z,1.93
2019-05-29T16:39:22.761Z,1.47
2019-05-29T16:41:55.587Z,2.00
2019-05-29T16:44:29.593Z,1.70
2019-05-29T16:47:02.515Z,1.87
2019-05-29T16:49:35.335Z,1.67
2019-05-29T16:52:07.983Z,2.10
2019-05-29T16:54:41.283Z,1.77
2019-05-29T16:57:15.166Z,1.63
2019-05-29T16:59:48.241Z,1.47
2019-05-29T17:02:21.728Z,1.30
2019-05-29T17:04:58.166Z,1.60
2019-05-29T17:07:28.995Z,1.97
2019-05-29T17:10:02.240Z,1.53
2019-05-29T17:12:35.199Z,2.00
2019-05-29T17:15:10.393Z,1.60
2019-05-29T17:17:43.235Z,1.37
2019-05-29T17:20:18.634Z,2.50
2019-05-29T17:22:51.412Z,1.60
2019-05-29T17:25:28.377Z,1.30
2019-05-29T17:27:59.294Z,2.17
2019-05-29T17:30:34.885Z,2.50
2019-05-29T17:33:08.093Z,2.13
2019-05-29T17:35:41.081Z,1.50
2019-05-29T17:38:14.775Z,1.80
2019-05-29T17:40:47.699Z,1.37
2019-05-29T17:43:23.469Z,1.60
2019-05-29T17:45:54.397Z,1.30
2019-05-29T17:48:27.008Z,2.17
2019-05-29T17:50:59.852Z,3.20
2019-05-29T17:53:32.561Z,2.63
2019-05-29T17:56:05.749Z,1.80
2019-05-29T17:58:38.541Z,1.60
2019-05-29T18:01:11.358Z,1.83
2019-05-29T18:03:44.345Z,1.80
2019-05-29T18:06:18.202Z,1.60
2019-05-29T18:08:50.937Z,1.43
2019-05-29T18:11:25.149Z,1.97
2019-05-29T18:13:57.589Z,1.57
2019-05-29T18:16:30.452Z,2.73
2019-05-29T18:19:03.292Z,1.43
2019-05-29T18:21:35.995Z,1.47
2019-05-29T18:24:08.954Z,1.70
2019-05-29T18:26:46.749Z,1.70
2019-05-29T18:29:15.849Z,1.47
2019-05-29T18:31:48.510Z,2.33
2019-05-29T18:34:21.342Z,1.63
2019-05-29T18:36:54.222Z,1.50
2019-05-29T18:39:28.337Z,1.60
2019-05-29T18:42:01.083Z,1.43
2019-05-29T18:44:34.008Z,2.40
2019-05-29T18:47:06.718Z,1.83
2019-05-29T18:49:40.430Z,1.30
2019-05-29T18:52:13.470Z,1.90
2019-05-29T18:54:46.325Z,1.70
2019-05-29T18:57:19.073Z,1.37
2019-05-29T18:59:51.927Z,2.27
2019-05-29T19:02:25.375Z,1.60
2019-05-29T19:04:58.506Z,1.73
2019-05-29T19:07:31.805Z,1.20
2019-05-29T19:10:06.774Z,1.67
2019-05-29T19:12:38.491Z,1.93
2019-05-29T19:15:12.911Z,1.73
2019-05-29T19:17:45.532Z,1.33
2019-05-29T19:20:18.640Z,1.83
2019-05-29T19:22:52.848Z,1.47
2019-05-29T19:25:26.713Z,1.30
2019-05-29T19:27:59.510Z,1.50
2019-05-29T19:30:33.030Z,1.90
2019-05-29T19:33:05.558Z,1.70
2019-05-29T19:35:38.447Z,1.77
2019-05-29T19:38:11.193Z,1.47
2019-05-29T19:40:43.945Z,1.40
2019-05-29T19:43:16.496Z,2.50
2019-05-29T19:45:51.020Z,2.80
2019-05-29T19:48:24.669Z,1.80
2019-05-29T19:50:57.912Z,2.33
2019-05-29T19:53:31.508Z,1.43
2019-05-29T19:56:04.472Z,2.00
2019-05-29T19:58:37.705Z,1.60
2019-05-29T20:01:10.440Z,2.77
2019-05-29T20:03:43.906Z,1.40
2019-05-29T20:06:16.579Z,1.27
2019-05-29T20:08:49.518Z,1.73
2019-05-29T20:11:22.528Z,1.50
2019-05-29T20:13:55.655Z,1.60
2019-05-29T20:16:28.473Z,2.23
2019-05-29T20:19:01.268Z,1.87
2019-05-29T20:21:34.739Z,1.50
2019-05-29T20:24:07.628Z,2.13
2019-05-29T20:26:41.457Z,1.83
2019-05-29T20:29:14.229Z,2.27
2019-05-29T20:31:46.950Z,1.80
2019-05-29T20:34:19.727Z,3.00
2019-05-29T20:36:52.834Z,1.90
2019-05-29T20:39:25.653Z,1.83
2019-05-29T20:41:58.503Z,2.07
2019-05-29T20:44:32.508Z,1.77
2019-05-29T20:47:05.373Z,2.40
2019-05-29T20:49:38.246Z,1.73
2019-05-29T20:52:11.881Z,2.17
2019-05-29T20:54:45.902Z,2.60
2019-05-29T20:57:18.565Z,2.30
2019-05-29T20:59:51.761Z,2.00
2019-05-29T21:02:24.498Z,3.37
2019-05-29T21:04:57.313Z,3.17
2019-05-29T21:07:30.627Z,2.13
2019-05-29T21:10:03.862Z,2.83
2019-05-29T21:12:37.387Z,1.67
2019-05-29T21:15:11.033Z,2.20
2019-05-29T21:17:44.770Z,2.53
2019-05-29T21:20:17.608Z,2.17
2019-05-29T21:22:50.442Z,2.20
2019-05-29T21:25:23.374Z,1.77
2019-05-29T21:27:56.029Z,2.80
2019-05-29T21:30:28.898Z,2.03
2019-05-29T21:33:01.851Z,2.23
2019-05-29T21:35:35.969Z,2.03
2019-05-29T21:38:08.710Z,1.60
2019-05-29T21:40:42.434Z,1.87
2019-05-29T21:43:15.335Z,2.30
2019-05-29T21:45:47.839Z,1.83
2019-05-29T21:48:22.344Z,1.87
2019-05-29T21:50:55.059Z,2.90
2019-05-29T21:53:27.699Z,2.00
2019-05-29T21:56:01.478Z,2.00
2019-05-29T21:58:35.072Z,1.73
2019-05-29T22:01:07.918Z,2.97
2019-05-29T22:03:40.752Z,2.10
2019-05-29T22:06:13.591Z,1.83
2019-05-29T22:08:47.455Z,2.47
2019-05-29T22:11:19.936Z,1.97
2019-05-29T22:13:52.653Z,1.60
2019-05-29T22:16:25.869Z,3.27
2019-05-29T22:19:02.503Z,1.80
2019-05-29T22:21:32.843Z,2.30
2019-05-29T22:24:05.483Z,2.50
2019-05-29T22:26:39.271Z,2.40
2019-05-29T22:29:17.814Z,1.97
2019-05-29T22:31:45.947Z,1.53
2019-05-29T22:34:18.598Z,1.80
2019-05-29T22:36:51.502Z,2.67
2019-05-29T22:39:24.398Z,1.90
2019-05-29T22:41:57.598Z,1.87
2019-05-29T22:44:30.383Z,1.70
2019-05-29T22:47:03.381Z,2.10
2019-05-29T22:49:36.104Z,2.33
2019-05-29T22:52:09.233Z,3.43
2019-05-29T22:54:42.352Z,2.37
2019-05-29T22:57:15.225Z,1.80
2019-05-29T22:59:48.548Z,2.50
2019-05-29T23:02:21.348Z,2.00
2019-05-29T23:04:54.172Z,2.30
2019-05-29T23:07:26.809Z,2.47
2019-05-29T23:10:00.610Z,1.93
2019-05-29T23:12:33.566Z,2.87
2019-05-29T23:15:07.368Z,2.23
2019-05-29T23:17:40.088Z,2.73
2019-05-29T23:20:12.844Z,1.70
2019-05-29T23:22:45.575Z,2.23
2019-05-29T23:25:18.430Z,4.57
2019-05-29T23:27:52.812Z,2.10
2019-05-29T23:30:25.807Z,1.70
2019-05-29T23:32:58.986Z,1.67
2019-05-29T23:35:31.815Z,2.57
2019-05-29T23:38:04.615Z,2.17
2019-05-29T23:40:37.633Z,1.27
2019-05-29T23:43:10.258Z,2.93
2019-05-29T23:45:48.174Z,1.83
2019-05-29T23:48:21.975Z,1.83
2019-05-29T23:50:55.493Z,2.30
2019-05-29T23:53:28.309Z,2.47
2019-05-29T23:56:01.835Z,1.53
2019-05-29T23:58:34.390Z,1.90
